Terminal Aerodrome Forecast
Issued by NWS New Orleans/Baton Rouge, LA

Home | Current Version | Previous Version | Text Only | Print | Product List | Glossary On
Versions: 1 2 3 4 5 6 7 8 9 10 11 12 13 14
000
FTUS44 KLIX 280500
TAFBTR
TAF
KBTR 280523Z 2806/2906 23006KT P6SM FEW050 SCT250
     FM281400 26007KT P6SM SCT035 PROB30 2820/2823 VRB30KT 2SM TSRA
      BKN028CB=

USA.gov is the U.S. government's official web portal to all federal, state and local government web resources and services.